• Join FlightAware (Why Join?)
  • Login
  • US Flag 
03:35AM EDT


 

Airport Tracker/Info


-or-


 

Live Flight TrackerFlight Track Log ✈ TAM3217 ✈ 05-Jul-2013 ✈ SBCF / CNF - SBSP / CGH

Flight Track Log - Related Links

Times and Time Zones

All times are in EDT time to prevent confusion due to time zone crossing. See the TAM3217 flight status page for this flight to view local times or setup timezone preferences in your user account.

Time Position Orientation Groundspeed Altitude Reporting Facility
EDT Latitude Longitude Course Direction KTS MPH feet Rate Location/Type
06:20PM -19.7210 -43.9560 235° Southwest 259 298 5,100  Level FlightAware
06:21PM -19.7460 -44.0080 243° Southwest 282 325 7,100 2,760 Climbing FlightAware
06:21PM -19.7630 -44.0420 242° Southwest 290 334 8,400 2,640 Climbing FlightAware
06:21PM -19.7750 -44.0660 242° Southwest 292 336 9,300 2,100 Climbing FlightAware
06:22PM -19.8010 -44.1160 241° Southwest 320 368 10,600 1,620 Climbing FlightAware
06:23PM -19.8350 -44.1820 241° Southwest 357 411 11,500 1,740 Climbing FlightAware
06:23PM -19.8690 -44.2470 241° Southwest 374 430 13,000 2,280 Climbing FlightAware
06:24PM -19.9060 -44.3180 241° Southwest 382 440 14,700 2,160 Climbing FlightAware
06:25PM -19.9340 -44.3730 242° Southwest 384 442 15,800 720 Climbing FlightAware
06:26PM -19.9720 -44.4450 241° Southwest 384 442 15,800  Level FlightAware
06:26PM -19.9980 -44.4950 241° Southwest 384 442 15,800  Level FlightAware
06:27PM -20.0340 -44.5640 241° Southwest 384 442 15,800  Level FlightAware
06:28PM -20.0630 -44.6190 241° Southwest 384 442 15,800  Level FlightAware
06:28PM -20.0890 -44.6700 241° Southwest 384 442 15,800 5,340 Level FlightAware
06:29PM -20.1520 -44.8480 249° West 448 516 23,100 4,260 Climbing FlightAware
06:30PM -20.2120 -44.9900 246° West 457 526 24,800 1,500 Climbing FlightAware
06:31PM -20.2540 -45.0910 246° West 457 526 26,200 2,460 Climbing FlightAware
06:32PM -20.3030 -45.2050 245° Southwest 425 489 28,800 1,920 Climbing FlightAware
06:33PM -20.3380 -45.2670 239° Southwest 424 488 29,200 660 Climbing FlightAware
06:33PM -20.3990 -45.3460 231° Southwest 434 499 29,700 900 Climbing FlightAware
06:34PM -20.4530 -45.4130 229° Southwest 436 502 30,500 960 Climbing FlightAware
06:35PM -20.5070 -45.4800 229° Southwest 441 507 31,100 840 Climbing FlightAware
06:36PM -20.5910 -45.5840 229° Southwest 444 511 32,000 480 Climbing FlightAware
06:36PM -20.6400 -45.6440 229° Southwest 440 506 32,000  Level FlightAware
06:37PM -20.6820 -45.6960 229° Southwest 440 506 32,000  Level FlightAware
06:38PM -20.7510 -45.7830 230° Southwest 441 507 32,000  Level FlightAware
06:39PM -20.8290 -45.8800 229° Southwest 442 509 32,000  Level FlightAware
06:39PM -20.8820 -45.9470 230° Southwest 444 511 32,000  Level FlightAware
06:40PM -20.9380 -46.0170 229° Southwest 443 510 32,000  Level FlightAware
06:41PM -20.9940 -46.0870 229° Southwest 443 510 32,000  Level FlightAware
06:42PM -21.0820 -46.1980 230° Southwest 441 507 32,000  Level FlightAware
06:42PM -21.1370 -46.2670 229° Southwest 440 506 32,000  Level FlightAware
06:43PM -21.1900 -46.3330 229° Southwest 441 507 32,000  Level FlightAware
06:44PM -21.2480 -46.4070 230° Southwest 440 506 32,000  Level FlightAware
06:44PM -21.2930 -46.4620 229° Southwest 436 502 32,000  Level FlightAware
06:45PM -21.3550 -46.5160 219° Southwest 430 495 32,000  Level FlightAware
06:46PM -21.4240 -46.5760 219° Southwest 429 494 32,000  Level FlightAware
06:47PM -21.4870 -46.6320 220° Southwest 427 491 32,000  Level FlightAware
06:47PM -21.5480 -46.6850 219° Southwest 426 490 32,000  Level FlightAware
06:48PM -21.6190 -46.7470 219° Southwest 427 491 32,000  Level FlightAware
06:49PM -21.6800 -46.8000 219° Southwest 427 491 32,000  Level FlightAware
06:49PM -21.7360 -46.8490 219° Southwest 429 494 32,000  Level FlightAware
06:50PM -21.7980 -46.9040 219° Southwest 429 494 32,000  Level FlightAware
06:51PM -21.8660 -46.9640 219° Southwest 428 493 32,000  Level FlightAware
06:51PM -21.9180 -47.0100 219° Southwest 427 491 32,000  Level FlightAware
06:52PM -21.9800 -47.0640 219° Southwest 427 491 32,000  Level FlightAware
06:53PM -22.0480 -47.1240 219° Southwest 429 494 32,000  Level FlightAware
06:53PM -22.1050 -47.1750 220° Southwest 431 496 32,000 -300 Level FlightAware
06:54PM -22.1770 -47.2350 218° Southwest 416 479 31,600 -720 Descending FlightAware
06:55PM -22.2450 -47.2710 206° Southwest 408 470 31,000 -1,380 Descending FlightAware
06:55PM -22.2930 -47.2960 206° Southwest 408 470 30,100 -1,980 Descending FlightAware
06:56PM -22.3700 -47.3360 206° Southwest 403 464 28,600 -2,040 Descending FlightAware
06:56PM -22.4210 -47.3630 206° Southwest 401 461 27,500 -2,100 Descending FlightAware
06:57PM -22.4960 -47.4020 206° Southwest 397 457 26,000 -2,100 Descending FlightAware
06:58PM -22.5630 -47.4370 206° Southwest 394 453 24,600 -1,980 Descending FlightAware
06:58PM -22.6220 -47.4690 207° Southwest 390 449 23,500 -1,980 Descending FlightAware
06:59PM -22.6880 -47.5040 206° Southwest 387 445 22,100 -1,920 Descending FlightAware
07:00PM -22.7530 -47.5370 205° Southwest 385 443 20,900 -2,340 Descending FlightAware
07:01PM -22.8590 -47.5100 167° South 386 444 17,800 -2,400 Descending FlightAware
07:02PM -22.9300 -47.4440 139° Southeast 380 437 16,000 -1,860 Descending FlightAware
07:03PM -22.9830 -47.3940 139° Southeast 367 422 14,800 -1,680 Descending FlightAware
07:03PM -23.0380 -47.3430 140° Southeast 356 410 13,600 -1,680 Descending FlightAware
07:04PM -23.0950 -47.2910 140° Southeast 345 397 12,400 -1,140 Descending FlightAware
07:05PM -23.1440 -47.2450 139° Southeast 317 365 12,000 -600 Descending FlightAware
07:05PM -23.1870 -47.2050 139° Southeast 318 366 11,600 -600 Descending FlightAware
07:06PM -23.2230 -47.1710 139° Southeast 315 362 11,300 -540 Descending FlightAware
07:07PM -23.2780 -47.1190 139° Southeast 311 358 10,900 -600 Descending FlightAware
07:07PM -23.3200 -47.0800 140° Southeast 312 359 10,500 -660 Descending FlightAware
07:08PM -23.3670 -47.0360 139° Southeast 309 356 10,100 -600 Descending FlightAware
07:09PM -23.4030 -47.0020 139° Southeast 308 354 9,800 -660 Descending FlightAware
07:09PM -23.4560 -46.9530 140° Southeast 306 352 9,300 -660 Descending FlightAware
07:10PM -23.4860 -46.9250 139° Southeast 306 352 9,100 -540 Descending FlightAware
07:10PM -23.5070 -46.9050 139° Southeast 304 350 8,900 -420 Descending FlightAware
07:11PM -23.5320 -46.8800 137° Southeast 302 348 8,800 -540 Descending FlightAware
07:11PM -23.5660 -46.8480 139° Southeast 304 350 8,400 -1,020 Descending FlightAware
07:12PM -23.5960 -46.8190 138° Southeast 301 346 7,800 -1,200 Descending FlightAware
07:12PM -23.6240 -46.7910 138° Southeast 291 335 7,300 -660 Descending FlightAware
07:13PM -23.6510 -46.7640 138° Southeast 268 308 7,200 -120 Descending FlightAware
07:13PM -23.6760 -46.7390 138° Southeast 262 302 7,200  Level FlightAware
07:13PM -23.7010 -46.7140 138° Southeast 246 283 7,200 -360 Level FlightAware
07:14PM -23.7240 -46.6920 139° Southeast 234 269 6,900 -900 Descending FlightAware
07:14PM -23.7460 -46.6710 139° Southeast 230 265 6,400 -1,080 Descending FlightAware
07:15PM -23.7550 -46.6610 135° Southeast 230 265 6,200 -960 Descending FlightAware
07:15PM -23.7760 -46.6420 140° Southeast 227 261 5,800 -540 Descending FlightAware
07:16PM -23.7930 -46.6210 132° Southeast 229 264 5,700 -600 Descending FlightAware
07:16PM -23.7810 -46.5790 73° East 213 245 5,200 -720 Descending FlightAware
07:16PM -23.7690 -46.5700 34° Northeast 208 239 5,100 -420 Descending FlightAware
07:17PM -23.7450 -46.5750 349° North 191 220 4,900 -720 Descending FlightAware
07:17PM -23.7280 -46.5870 327° Northwest 174 200 4,500 -1,080 Descending FlightAware
07:17PM -23.7220 -46.5910 329° Northwest 158 182 4,300 -840 Descending FlightAware
07:18PM -23.7060 -46.6020 328° Northwest 141 162 4,000 -780 Descending FlightAware
07:18PM -23.6890 -46.6130 329° Northwest 139 160 3,600 -840 Descending FlightAware
07:19PM -23.6710 -46.6260 327° Northwest 145 167 3,200 -720 Descending FlightAware
07:19PM -23.6660 -46.6300 324° Northwest 144 166 3,100 -720 Descending FlightAware
07:20PM -23.6460 -46.6430 329° Northwest 141 162 2,600 -660 Descending FlightAware
07:20PM -23.6360 -46.6500 327° Northwest 142 163 2,400 -480 Descending FlightAware
07:20PM -23.6260 -46.6570 327° Northwest 141 162 -11,100 Descending FlightAware
07:21PM -23.6220 -46.6600 326° Northwest 141 162  Level FlightAware
07:22PM -23.6230 -46.6600 180° South 141 162  Level FlightAware
07:22PM -23.6140 -46.6470 53° Northeast 141 162  Level FlightAware
07:23PM -23.6240 -46.6600 230° Southwest  Level FlightAware
07:25PM -23.6267 -46.6554 122° Southeast  Level Estimated
07:26PM -23.6267 -46.6554 114° Southeast  Level Estimated
07:27PM -23.6267 -46.6554 114° Southeast  Level Estimated